sensor_id;sensor_type;location;lat;lon;timestamp;P1;durP1;ratioP1;P2;durP2;ratioP2
20042;SDS011;10182;52.896;6.496;2022-10-16T00:00:08;5.83;;;2.77;;
20042;SDS011;10182;52.896;6.496;2022-10-16T00:05:13;3.90;;;1.97;;
20042;SDS011;10182;52.896;6.496;2022-10-16T00:10:14;7.87;;;2.87;;
20042;SDS011;10182;52.896;6.496;2022-10-16T00:15:16;5.83;;;1.93;;
20042;SDS011;10182;52.896;6.496;2022-10-16T00:20:19;4.43;;;2.00;;
20042;SDS011;10182;52.896;6.496;2022-10-16T00:25:21;6.07;;;2.57;;
20042;SDS011;10182;52.896;6.496;2022-10-16T00:30:22;5.87;;;2.07;;
20042;SDS011;10182;52.896;6.496;2022-10-16T00:35:26;8.33;;;2.50;;
20042;SDS011;10182;52.896;6.496;2022-10-16T00:40:28;4.30;;;2.20;;
20042;SDS011;10182;52.896;6.496;2022-10-16T00:45:29;6.17;;;2.30;;
20042;SDS011;10182;52.896;6.496;2022-10-16T00:50:33;5.73;;;2.13;;
20042;SDS011;10182;52.896;6.496;2022-10-16T00:55:35;7.07;;;1.77;;
20042;SDS011;10182;52.896;6.496;2022-10-16T01:00:37;6.77;;;2.30;;
20042;SDS011;10182;52.896;6.496;2022-10-16T01:05:48;2.90;;;2.00;;
20042;SDS011;10182;52.896;6.496;2022-10-16T01:10:54;7.23;;;2.67;;
20042;SDS011;10182;52.896;6.496;2022-10-16T01:16:04;3.60;;;2.53;;
20042;SDS011;10182;52.896;6.496;2022-10-16T01:21:10;2.77;;;1.70;;
20042;SDS011;10182;52.896;6.496;2022-10-16T01:26:24;5.53;;;2.63;;
20042;SDS011;10182;52.896;6.496;2022-10-16T01:31:39;5.83;;;2.30;;
20042;SDS011;10182;52.896;6.496;2022-10-16T01:36:44;5.70;;;2.27;;
20042;SDS011;10182;52.896;6.496;2022-10-16T01:41:49;4.17;;;2.30;;
20042;SDS011;10182;52.896;6.496;2022-10-16T01:46:57;4.57;;;2.50;;
20042;SDS011;10182;52.896;6.496;2022-10-16T01:52:02;4.13;;;1.77;;
20042;SDS011;10182;52.896;6.496;2022-10-16T01:57:06;5.03;;;2.47;;
20042;SDS011;10182;52.896;6.496;2022-10-16T02:02:10;6.17;;;2.10;;
20042;SDS011;10182;52.896;6.496;2022-10-16T02:07:16;5.03;;;2.33;;
20042;SDS011;10182;52.896;6.496;2022-10-16T02:12:19;2.53;;;1.90;;
20042;SDS011;10182;52.896;6.496;2022-10-16T02:17:28;5.53;;;2.60;;
20042;SDS011;10182;52.896;6.496;2022-10-16T02:22:30;4.93;;;1.80;;
20042;SDS011;10182;52.896;6.496;2022-10-16T02:27:36;5.37;;;2.00;;
20042;SDS011;10182;52.896;6.496;2022-10-16T02:32:44;6.27;;;2.17;;
20042;SDS011;10182;52.896;6.496;2022-10-16T02:37:49;6.90;;;2.20;;
20042;SDS011;10182;52.896;6.496;2022-10-16T02:42:53;3.97;;;2.47;;
20042;SDS011;10182;52.896;6.496;2022-10-16T02:47:57;3.53;;;2.30;;
20042;SDS011;10182;52.896;6.496;2022-10-16T02:52:58;6.00;;;2.10;;
20042;SDS011;10182;52.896;6.496;2022-10-16T02:58:00;6.37;;;2.73;;
20042;SDS011;10182;52.896;6.496;2022-10-16T03:03:03;6.27;;;2.20;;
20042;SDS011;10182;52.896;6.496;2022-10-16T03:08:05;4.73;;;2.33;;
20042;SDS011;10182;52.896;6.496;2022-10-16T03:13:06;4.13;;;2.37;;
20042;SDS011;10182;52.896;6.496;2022-10-16T03:18:09;4.20;;;2.17;;
20042;SDS011;10182;52.896;6.496;2022-10-16T03:23:11;3.77;;;2.03;;
20042;SDS011;10182;52.896;6.496;2022-10-16T03:28:12;3.40;;;2.17;;
20042;SDS011;10182;52.896;6.496;2022-10-16T03:33:15;5.43;;;2.40;;
20042;SDS011;10182;52.896;6.496;2022-10-16T03:38:17;4.07;;;2.50;;
20042;SDS011;10182;52.896;6.496;2022-10-16T03:43:19;4.23;;;2.37;;
20042;SDS011;10182;52.896;6.496;2022-10-16T03:48:22;5.37;;;2.33;;
20042;SDS011;10182;52.896;6.496;2022-10-16T03:53:23;4.43;;;2.13;;
20042;SDS011;10182;52.896;6.496;2022-10-16T03:58:25;7.10;;;2.20;;
20042;SDS011;10182;52.896;6.496;2022-10-16T04:03:28;5.53;;;2.23;;
20042;SDS011;10182;52.896;6.496;2022-10-16T04:08:30;2.83;;;2.17;;
20042;SDS011;10182;52.896;6.496;2022-10-16T04:13:34;4.83;;;2.30;;
20042;SDS011;10182;52.896;6.496;2022-10-16T04:18:37;2.80;;;2.33;;
20042;SDS011;10182;52.896;6.496;2022-10-16T04:23:38;2.50;;;2.30;;
20042;SDS011;10182;52.896;6.496;2022-10-16T04:28:40;5.27;;;2.30;;
20042;SDS011;10182;52.896;6.496;2022-10-16T04:33:43;6.40;;;2.73;;
20042;SDS011;10182;52.896;6.496;2022-10-16T04:38:45;5.37;;;3.00;;
20042;SDS011;10182;52.896;6.496;2022-10-16T04:43:47;5.43;;;3.30;;
20042;SDS011;10182;52.896;6.496;2022-10-16T04:48:50;6.33;;;3.07;;
20042;SDS011;10182;52.896;6.496;2022-10-16T04:53:51;4.40;;;3.00;;
20042;SDS011;10182;52.896;6.496;2022-10-16T04:58:53;5.10;;;3.40;;
20042;SDS011;10182;52.896;6.496;2022-10-16T05:03:56;5.87;;;3.10;;
20042;SDS011;10182;52.896;6.496;2022-10-16T05:08:58;6.33;;;3.20;;
20042;SDS011;10182;52.896;6.496;2022-10-16T05:13:59;4.90;;;3.40;;
20042;SDS011;10182;52.896;6.496;2022-10-16T05:19:03;3.80;;;3.03;;
20042;SDS011;10182;52.896;6.496;2022-10-16T05:24:04;5.60;;;3.30;;
20042;SDS011;10182;52.896;6.496;2022-10-16T05:29:06;3.97;;;3.10;;
20042;SDS011;10182;52.896;6.496;2022-10-16T05:34:09;4.67;;;3.10;;
20042;SDS011;10182;52.896;6.496;2022-10-16T05:39:11;5.50;;;3.40;;
20042;SDS011;10182;52.896;6.496;2022-10-16T05:44:14;4.73;;;3.70;;
20042;SDS011;10182;52.896;6.496;2022-10-16T05:49:17;6.80;;;3.53;;
20042;SDS011;10182;52.896;6.496;2022-10-16T05:54:19;5.93;;;3.30;;
20042;SDS011;10182;52.896;6.496;2022-10-16T05:59:21;7.17;;;3.20;;
20042;SDS011;10182;52.896;6.496;2022-10-16T06:04:24;4.57;;;3.37;;
20042;SDS011;10182;52.896;6.496;2022-10-16T06:09:25;5.67;;;3.30;;
20042;SDS011;10182;52.896;6.496;2022-10-16T06:14:27;5.07;;;3.40;;
20042;SDS011;10182;52.896;6.496;2022-10-16T06:19:30;4.90;;;3.40;;
20042;SDS011;10182;52.896;6.496;2022-10-16T06:24:32;5.37;;;3.30;;
20042;SDS011;10182;52.896;6.496;2022-10-16T06:29:33;6.17;;;3.87;;
20042;SDS011;10182;52.896;6.496;2022-10-16T06:34:36;4.50;;;3.30;;
20042;SDS011;10182;52.896;6.496;2022-10-16T06:39:40;3.57;;;3.00;;
20042;SDS011;10182;52.896;6.496;2022-10-16T06:44:41;5.43;;;3.60;;
20042;SDS011;10182;52.896;6.496;2022-10-16T06:49:44;5.77;;;3.37;;
20042;SDS011;10182;52.896;6.496;2022-10-16T06:54:46;5.00;;;3.17;;
20042;SDS011;10182;52.896;6.496;2022-10-16T06:59:48;3.43;;;2.73;;
20042;SDS011;10182;52.896;6.496;2022-10-16T07:04:51;6.07;;;3.63;;
20042;SDS011;10182;52.896;6.496;2022-10-16T07:09:52;4.83;;;3.10;;
20042;SDS011;10182;52.896;6.496;2022-10-16T07:14:54;5.70;;;3.10;;
20042;SDS011;10182;52.896;6.496;2022-10-16T07:19:57;5.37;;;2.77;;
20042;SDS011;10182;52.896;6.496;2022-10-16T07:24:59;4.70;;;3.00;;
20042;SDS011;10182;52.896;6.496;2022-10-16T07:30:01;4.33;;;2.90;;
20042;SDS011;10182;52.896;6.496;2022-10-16T07:35:05;5.53;;;2.87;;
20042;SDS011;10182;52.896;6.496;2022-10-16T07:40:08;2.63;;;2.27;;
20042;SDS011;10182;52.896;6.496;2022-10-16T07:45:10;4.30;;;2.50;;
20042;SDS011;10182;52.896;6.496;2022-10-16T07:50:13;2.37;;;2.13;;
20042;SDS011;10182;52.896;6.496;2022-10-16T07:55:15;3.63;;;1.90;;
20042;SDS011;10182;52.896;6.496;2022-10-16T08:00:17;3.87;;;2.00;;
20042;SDS011;10182;52.896;6.496;2022-10-16T08:05:20;3.53;;;1.70;;
20042;SDS011;10182;52.896;6.496;2022-10-16T08:10:22;3.50;;;1.60;;
20042;SDS011;10182;52.896;6.496;2022-10-16T08:15:26;6.90;;;1.47;;
20042;SDS011;10182;52.896;6.496;2022-10-16T08:20:29;3.00;;;1.50;;
20042;SDS011;10182;52.896;6.496;2022-10-16T08:25:33;2.27;;;1.37;;
20042;SDS011;10182;52.896;6.496;2022-10-16T08:30:35;4.57;;;1.43;;
20042;SDS011;10182;52.896;6.496;2022-10-16T08:35:39;3.27;;;1.40;;
20042;SDS011;10182;52.896;6.496;2022-10-16T08:40:42;3.73;;;1.40;;
20042;SDS011;10182;52.896;6.496;2022-10-16T08:45:47;3.23;;;1.50;;
20042;SDS011;10182;52.896;6.496;2022-10-16T08:51:03;6.40;;;1.70;;
20042;SDS011;10182;52.896;6.496;2022-10-16T08:56:06;4.10;;;1.80;;
20042;SDS011;10182;52.896;6.496;2022-10-16T09:01:10;9.70;;;2.23;;
20042;SDS011;10182;52.896;6.496;2022-10-16T09:06:19;7.03;;;1.97;;
20042;SDS011;10182;52.896;6.496;2022-10-16T09:11:34;6.83;;;2.37;;
20042;SDS011;10182;52.896;6.496;2022-10-16T09:16:48;8.77;;;2.30;;
20042;SDS011;10182;52.896;6.496;2022-10-16T09:22:00;11.20;;;2.67;;
20042;SDS011;10182;52.896;6.496;2022-10-16T09:27:11;5.67;;;1.80;;
20042;SDS011;10182;52.896;6.496;2022-10-16T09:32:16;8.13;;;2.17;;
20042;SDS011;10182;52.896;6.496;2022-10-16T09:37:22;6.07;;;1.97;;
20042;SDS011;10182;52.896;6.496;2022-10-16T09:42:26;6.13;;;2.17;;
20042;SDS011;10182;52.896;6.496;2022-10-16T09:47:35;5.73;;;2.10;;
20042;SDS011;10182;52.896;6.496;2022-10-16T09:52:43;6.43;;;2.20;;
20042;SDS011;10182;52.896;6.496;2022-10-16T09:57:50;7.60;;;2.37;;
20042;SDS011;10182;52.896;6.496;2022-10-16T10:02:52;7.70;;;2.10;;
20042;SDS011;10182;52.896;6.496;2022-10-16T10:07:57;14.40;;;2.30;;
20042;SDS011;10182;52.896;6.496;2022-10-16T10:13:00;11.10;;;2.17;;
20042;SDS011;10182;52.896;6.496;2022-10-16T10:18:02;6.67;;;2.20;;
20042;SDS011;10182;52.896;6.496;2022-10-16T10:23:20;11.23;;;2.73;;
20042;SDS011;10182;52.896;6.496;2022-10-16T10:28:38;7.50;;;1.97;;
20042;SDS011;10182;52.896;6.496;2022-10-16T10:33:51;9.23;;;2.10;;
20042;SDS011;10182;52.896;6.496;2022-10-16T10:38:58;7.00;;;2.17;;
20042;SDS011;10182;52.896;6.496;2022-10-16T10:44:03;10.97;;;2.53;;
20042;SDS011;10182;52.896;6.496;2022-10-16T10:49:16;9.60;;;2.80;;
20042;SDS011;10182;52.896;6.496;2022-10-16T10:54:31;9.73;;;2.60;;
20042;SDS011;10182;52.896;6.496;2022-10-16T10:59:43;9.40;;;2.63;;
20042;SDS011;10182;52.896;6.496;2022-10-16T11:05:02;11.00;;;2.67;;
20042;SDS011;10182;52.896;6.496;2022-10-16T11:10:24;13.63;;;3.37;;
20042;SDS011;10182;52.896;6.496;2022-10-16T11:15:29;8.83;;;2.20;;
20042;SDS011;10182;52.896;6.496;2022-10-16T11:20:33;12.33;;;2.60;;
20042;SDS011;10182;52.896;6.496;2022-10-16T11:25:42;8.53;;;2.23;;
20042;SDS011;10182;52.896;6.496;2022-10-16T11:30:44;8.10;;;2.63;;
20042;SDS011;10182;52.896;6.496;2022-10-16T11:35:51;8.83;;;1.77;;
20042;SDS011;10182;52.896;6.496;2022-10-16T11:40:58;11.77;;;2.57;;
20042;SDS011;10182;52.896;6.496;2022-10-16T11:46:07;8.30;;;2.20;;
20042;SDS011;10182;52.896;6.496;2022-10-16T11:51:14;9.10;;;4.07;;
20042;SDS011;10182;52.896;6.496;2022-10-16T11:56:21;8.40;;;4.07;;
20042;SDS011;10182;52.896;6.496;2022-10-16T12:01:26;7.33;;;2.07;;
20042;SDS011;10182;52.896;6.496;2022-10-16T12:06:33;10.73;;;2.13;;
20042;SDS011;10182;52.896;6.496;2022-10-16T12:11:41;9.57;;;2.33;;
20042;SDS011;10182;52.896;6.496;2022-10-16T12:16:50;7.37;;;2.10;;
20042;SDS011;10182;52.896;6.496;2022-10-16T12:21:54;7.37;;;2.93;;
20042;SDS011;10182;52.896;6.496;2022-10-16T12:26:58;12.77;;;2.33;;
20042;SDS011;10182;52.896;6.496;2022-10-16T12:32:01;12.00;;;2.03;;
20042;SDS011;10182;52.896;6.496;2022-10-16T12:37:08;5.37;;;1.87;;
20042;SDS011;10182;52.896;6.496;2022-10-16T12:42:21;9.00;;;2.10;;
20042;SDS011;10182;52.896;6.496;2022-10-16T12:47:35;10.63;;;2.10;;
20042;SDS011;10182;52.896;6.496;2022-10-16T12:52:38;9.77;;;2.27;;
20042;SDS011;10182;52.896;6.496;2022-10-16T12:57:43;8.80;;;2.00;;
20042;SDS011;10182;52.896;6.496;2022-10-16T13:03:15;7.07;;;1.80;;
20042;SDS011;10182;52.896;6.496;2022-10-16T13:08:40;6.47;;;1.80;;
20042;SDS011;10182;52.896;6.496;2022-10-16T13:14:13;9.50;;;2.27;;
20042;SDS011;10182;52.896;6.496;2022-10-16T13:19:28;7.83;;;2.37;;
20042;SDS011;10182;52.896;6.496;2022-10-16T13:24:41;9.73;;;1.90;;
20042;SDS011;10182;52.896;6.496;2022-10-16T13:29:53;7.97;;;1.80;;
20042;SDS011;10182;52.896;6.496;2022-10-16T13:35:01;8.10;;;2.37;;
20042;SDS011;10182;52.896;6.496;2022-10-16T13:40:09;8.30;;;2.40;;
20042;SDS011;10182;52.896;6.496;2022-10-16T13:45:22;11.93;;;2.60;;
20042;SDS011;10182;52.896;6.496;2022-10-16T13:50:26;10.03;;;2.40;;
20042;SDS011;10182;52.896;6.496;2022-10-16T13:55:27;13.10;;;2.80;;
20042;SDS011;10182;52.896;6.496;2022-10-16T14:00:31;10.87;;;2.67;;
20042;SDS011;10182;52.896;6.496;2022-10-16T14:05:33;9.97;;;2.70;;
20042;SDS011;10182;52.896;6.496;2022-10-16T14:10:35;15.83;;;2.23;;
20042;SDS011;10182;52.896;6.496;2022-10-16T14:15:38;12.10;;;2.83;;
20042;SDS011;10182;52.896;6.496;2022-10-16T14:20:40;17.50;;;3.27;;
20042;SDS011;10182;52.896;6.496;2022-10-16T14:25:42;9.67;;;2.10;;
20042;SDS011;10182;52.896;6.496;2022-10-16T14:30:51;7.23;;;2.27;;
20042;SDS011;10182;52.896;6.496;2022-10-16T14:36:01;9.13;;;2.40;;
20042;SDS011;10182;52.896;6.496;2022-10-16T14:41:06;17.43;;;2.70;;
20042;SDS011;10182;52.896;6.496;2022-10-16T14:46:11;15.80;;;2.77;;
20042;SDS011;10182;52.896;6.496;2022-10-16T14:51:16;10.37;;;2.87;;
20042;SDS011;10182;52.896;6.496;2022-10-16T14:56:19;14.33;;;2.87;;
20042;SDS011;10182;52.896;6.496;2022-10-16T15:01:23;6.10;;;1.97;;
20042;SDS011;10182;52.896;6.496;2022-10-16T15:06:25;17.23;;;2.73;;
20042;SDS011;10182;52.896;6.496;2022-10-16T15:11:27;15.40;;;3.43;;
20042;SDS011;10182;52.896;6.496;2022-10-16T15:16:30;11.63;;;2.20;;
20042;SDS011;10182;52.896;6.496;2022-10-16T15:21:32;11.80;;;2.73;;
20042;SDS011;10182;52.896;6.496;2022-10-16T15:26:34;13.20;;;3.33;;
20042;SDS011;10182;52.896;6.496;2022-10-16T15:31:37;9.87;;;2.80;;
20042;SDS011;10182;52.896;6.496;2022-10-16T15:36:42;14.03;;;3.10;;
20042;SDS011;10182;52.896;6.496;2022-10-16T15:41:44;13.07;;;3.00;;
20042;SDS011;10182;52.896;6.496;2022-10-16T15:46:51;8.00;;;2.47;;
20042;SDS011;10182;52.896;6.496;2022-10-16T15:51:55;10.47;;;3.87;;
20042;SDS011;10182;52.896;6.496;2022-10-16T15:56:57;14.23;;;3.77;;
20042;SDS011;10182;52.896;6.496;2022-10-16T16:02:00;12.17;;;3.87;;
20042;SDS011;10182;52.896;6.496;2022-10-16T16:07:02;9.43;;;3.87;;
20042;SDS011;10182;52.896;6.496;2022-10-16T16:12:03;9.50;;;2.97;;
20042;SDS011;10182;52.896;6.496;2022-10-16T16:17:07;13.03;;;4.23;;
20042;SDS011;10182;52.896;6.496;2022-10-16T16:22:08;14.03;;;4.20;;
20042;SDS011;10182;52.896;6.496;2022-10-16T16:27:10;13.83;;;3.80;;
20042;SDS011;10182;52.896;6.496;2022-10-16T16:32:14;8.00;;;3.67;;
20042;SDS011;10182;52.896;6.496;2022-10-16T16:37:16;9.17;;;3.73;;
20042;SDS011;10182;52.896;6.496;2022-10-16T16:42:18;13.83;;;4.10;;
20042;SDS011;10182;52.896;6.496;2022-10-16T16:47:21;9.80;;;4.30;;
20042;SDS011;10182;52.896;6.496;2022-10-16T16:52:23;27.27;;;15.17;;
20042;SDS011;10182;52.896;6.496;2022-10-16T16:57:25;17.50;;;7.93;;
20042;SDS011;10182;52.896;6.496;2022-10-16T17:02:28;16.10;;;5.50;;
20042;SDS011;10182;52.896;6.496;2022-10-16T17:07:30;15.40;;;8.63;;
20042;SDS011;10182;52.896;6.496;2022-10-16T17:12:34;18.50;;;6.80;;
20042;SDS011;10182;52.896;6.496;2022-10-16T17:17:37;10.57;;;5.90;;
20042;SDS011;10182;52.896;6.496;2022-10-16T17:22:40;15.13;;;4.73;;
20042;SDS011;10182;52.896;6.496;2022-10-16T17:27:41;11.57;;;4.43;;
20042;SDS011;10182;52.896;6.496;2022-10-16T17:32:44;10.40;;;5.17;;
20042;SDS011;10182;52.896;6.496;2022-10-16T17:37:46;9.33;;;4.40;;
20042;SDS011;10182;52.896;6.496;2022-10-16T17:42:48;12.13;;;6.57;;
20042;SDS011;10182;52.896;6.496;2022-10-16T17:47:51;16.73;;;8.77;;
20042;SDS011;10182;52.896;6.496;2022-10-16T17:52:52;16.17;;;10.37;;
20042;SDS011;10182;52.896;6.496;2022-10-16T17:57:54;25.40;;;15.27;;
20042;SDS011;10182;52.896;6.496;2022-10-16T18:02:57;20.90;;;14.73;;
20042;SDS011;10182;52.896;6.496;2022-10-16T18:07:59;18.47;;;10.57;;
20042;SDS011;10182;52.896;6.496;2022-10-16T18:13:01;14.93;;;6.90;;
20042;SDS011;10182;52.896;6.496;2022-10-16T18:18:04;14.50;;;8.07;;
20042;SDS011;10182;52.896;6.496;2022-10-16T18:23:06;10.73;;;4.77;;
20042;SDS011;10182;52.896;6.496;2022-10-16T18:28:07;18.33;;;7.50;;
20042;SDS011;10182;52.896;6.496;2022-10-16T18:33:10;12.07;;;5.90;;
20042;SDS011;10182;52.896;6.496;2022-10-16T18:38:12;8.90;;;4.87;;
20042;SDS011;10182;52.896;6.496;2022-10-16T18:43:14;13.13;;;5.60;;
20042;SDS011;10182;52.896;6.496;2022-10-16T18:48:18;10.70;;;4.97;;
20042;SDS011;10182;52.896;6.496;2022-10-16T18:53:19;9.23;;;4.90;;
20042;SDS011;10182;52.896;6.496;2022-10-16T18:58:21;9.13;;;5.23;;
20042;SDS011;10182;52.896;6.496;2022-10-16T19:03:24;7.10;;;4.53;;
20042;SDS011;10182;52.896;6.496;2022-10-16T19:08:26;8.23;;;4.37;;
20042;SDS011;10182;52.896;6.496;2022-10-16T19:13:30;8.90;;;4.03;;
20042;SDS011;10182;52.896;6.496;2022-10-16T19:18:33;10.13;;;5.13;;
20042;SDS011;10182;52.896;6.496;2022-10-16T19:23:37;10.30;;;5.93;;
20042;SDS011;10182;52.896;6.496;2022-10-16T19:28:40;9.87;;;5.43;;
20042;SDS011;10182;52.896;6.496;2022-10-16T19:33:44;8.47;;;4.77;;
20042;SDS011;10182;52.896;6.496;2022-10-16T19:38:46;9.03;;;5.83;;
20042;SDS011;10182;52.896;6.496;2022-10-16T19:43:47;8.97;;;5.17;;
20042;SDS011;10182;52.896;6.496;2022-10-16T19:48:53;13.17;;;5.73;;
20042;SDS011;10182;52.896;6.496;2022-10-16T19:53:56;17.60;;;5.37;;
20042;SDS011;10182;52.896;6.496;2022-10-16T19:58:59;12.93;;;5.37;;
20042;SDS011;10182;52.896;6.496;2022-10-16T20:04:02;10.70;;;5.47;;
20042;SDS011;10182;52.896;6.496;2022-10-16T20:09:04;7.20;;;4.67;;
20042;SDS011;10182;52.896;6.496;2022-10-16T20:14:06;11.37;;;4.80;;
20042;SDS011;10182;52.896;6.496;2022-10-16T20:19:09;12.70;;;4.30;;
20042;SDS011;10182;52.896;6.496;2022-10-16T20:24:11;10.07;;;5.10;;
20042;SDS011;10182;52.896;6.496;2022-10-16T20:29:13;11.60;;;4.37;;
20042;SDS011;10182;52.896;6.496;2022-10-16T20:34:16;10.17;;;4.57;;
20042;SDS011;10182;52.896;6.496;2022-10-16T20:39:17;9.93;;;4.97;;
20042;SDS011;10182;52.896;6.496;2022-10-16T20:44:19;9.77;;;4.40;;
20042;SDS011;10182;52.896;6.496;2022-10-16T20:49:22;12.83;;;5.80;;
20042;SDS011;10182;52.896;6.496;2022-10-16T20:54:24;9.77;;;4.40;;
20042;SDS011;10182;52.896;6.496;2022-10-16T20:59:25;17.07;;;4.50;;
20042;SDS011;10182;52.896;6.496;2022-10-16T21:04:28;16.00;;;4.23;;
20042;SDS011;10182;52.896;6.496;2022-10-16T21:09:30;11.83;;;4.70;;
20042;SDS011;10182;52.896;6.496;2022-10-16T21:14:32;11.70;;;4.67;;
20042;SDS011;10182;52.896;6.496;2022-10-16T21:19:35;9.53;;;3.77;;
20042;SDS011;10182;52.896;6.496;2022-10-16T21:24:37;12.20;;;4.20;;
20042;SDS011;10182;52.896;6.496;2022-10-16T21:29:39;8.63;;;3.97;;
20042;SDS011;10182;52.896;6.496;2022-10-16T21:34:42;10.27;;;4.30;;
20042;SDS011;10182;52.896;6.496;2022-10-16T21:39:43;7.30;;;3.73;;
20042;SDS011;10182;52.896;6.496;2022-10-16T21:44:45;8.00;;;3.80;;
20042;SDS011;10182;52.896;6.496;2022-10-16T21:49:48;10.77;;;5.30;;
20042;SDS011;10182;52.896;6.496;2022-10-16T21:54:50;8.93;;;4.23;;
20042;SDS011;10182;52.896;6.496;2022-10-16T21:59:52;8.27;;;4.30;;
20042;SDS011;10182;52.896;6.496;2022-10-16T22:04:54;9.10;;;4.53;;
20042;SDS011;10182;52.896;6.496;2022-10-16T22:09:56;9.63;;;4.37;;
20042;SDS011;10182;52.896;6.496;2022-10-16T22:14:58;9.30;;;4.80;;
20042;SDS011;10182;52.896;6.496;2022-10-16T22:20:01;12.17;;;5.23;;
20042;SDS011;10182;52.896;6.496;2022-10-16T22:25:03;14.30;;;4.77;;
20042;SDS011;10182;52.896;6.496;2022-10-16T22:30:05;10.90;;;4.80;;
20042;SDS011;10182;52.896;6.496;2022-10-16T22:35:09;12.13;;;5.23;;
20042;SDS011;10182;52.896;6.496;2022-10-16T22:40:11;12.63;;;5.27;;
20042;SDS011;10182;52.896;6.496;2022-10-16T22:45:13;11.13;;;5.57;;
20042;SDS011;10182;52.896;6.496;2022-10-16T22:50:16;11.20;;;5.67;;
20042;SDS011;10182;52.896;6.496;2022-10-16T22:55:18;16.07;;;6.27;;
20042;SDS011;10182;52.896;6.496;2022-10-16T23:00:20;8.40;;;5.93;;
20042;SDS011;10182;52.896;6.496;2022-10-16T23:05:23;10.10;;;5.20;;
20042;SDS011;10182;52.896;6.496;2022-10-16T23:10:24;9.27;;;4.40;;
20042;SDS011;10182;52.896;6.496;2022-10-16T23:15:29;12.23;;;5.10;;
20042;SDS011;10182;52.896;6.496;2022-10-16T23:20:32;13.37;;;5.13;;
20042;SDS011;10182;52.896;6.496;2022-10-16T23:25:33;8.67;;;5.07;;
20042;SDS011;10182;52.896;6.496;2022-10-16T23:30:36;15.63;;;5.57;;
20042;SDS011;10182;52.896;6.496;2022-10-16T23:35:40;9.33;;;4.57;;
20042;SDS011;10182;52.896;6.496;2022-10-16T23:40:42;9.63;;;4.80;;
20042;SDS011;10182;52.896;6.496;2022-10-16T23:45:43;9.47;;;4.23;;
20042;SDS011;10182;52.896;6.496;2022-10-16T23:50:46;9.57;;;4.83;;
20042;SDS011;10182;52.896;6.496;2022-10-16T23:55:48;11.87;;;4.80;;
